createdAt,value
2023-01-28T00:04:50.452Z,85.5
2023-01-28T00:09:50.449Z,85.7
2023-01-28T00:14:50.455Z,86.0
2023-01-28T00:19:50.459Z,85.9
2023-01-28T00:24:50.762Z,86.1
2023-01-28T00:29:50.458Z,85.3
2023-01-28T00:34:50.469Z,85.3
2023-01-28T00:39:50.474Z,85.7
2023-01-28T00:44:50.465Z,85.2
2023-01-28T00:49:50.482Z,85.7
2023-01-28T00:54:50.478Z,85.5
2023-01-28T00:59:50.463Z,85.6
2023-01-28T01:04:50.483Z,86.0
2023-01-28T01:09:50.482Z,86.4
2023-01-28T01:14:50.486Z,86.2
2023-01-28T01:19:50.498Z,86.1
2023-01-28T01:24:50.606Z,86.3
2023-01-28T01:29:50.495Z,86.1
2023-01-28T01:34:50.506Z,86.2
2023-01-28T01:39:50.488Z,86.0
2023-01-28T01:44:50.499Z,85.7
2023-01-28T01:49:50.511Z,85.6
2023-01-28T01:54:50.524Z,83.4
2023-01-28T01:59:50.505Z,82.9
2023-01-28T02:04:50.515Z,82.8
2023-01-28T02:09:50.509Z,83.0
2023-01-28T02:14:50.515Z,83.4
2023-01-28T02:19:50.543Z,83.4
2023-01-28T02:24:50.876Z,83.6
2023-01-28T02:29:50.527Z,83.8
2023-01-28T02:34:50.519Z,84.1
2023-01-28T02:39:50.522Z,84.3
2023-01-28T02:44:50.531Z,84.8
2023-01-28T02:49:50.564Z,84.4
2023-01-28T02:54:50.545Z,83.9
2023-01-28T02:59:50.541Z,83.4
2023-01-28T03:04:50.541Z,84.3
2023-01-28T03:09:50.537Z,85.2
2023-01-28T03:14:50.542Z,85.5
2023-01-28T03:19:50.557Z,85.0
2023-01-28T03:24:50.663Z,84.8
2023-01-28T03:29:50.557Z,84.9
2023-01-28T03:34:50.556Z,84.7
2023-01-28T03:39:50.565Z,84.6
2023-01-28T03:44:50.570Z,85.0
2023-01-28T03:49:50.578Z,84.8
2023-01-28T03:54:50.599Z,84.5
2023-01-28T03:59:50.569Z,84.3
2023-01-28T04:04:50.697Z,83.3
2023-01-28T04:09:50.575Z,82.8
2023-01-28T04:14:50.577Z,82.9
2023-01-28T04:19:50.605Z,82.3
2023-01-28T04:24:50.641Z,82.6
2023-01-28T04:29:50.588Z,83.1
2023-01-28T04:34:50.588Z,83.0
2023-01-28T04:39:50.587Z,82.9
2023-01-28T04:44:50.595Z,83.1
2023-01-28T04:49:50.605Z,83.5
2023-01-28T04:54:50.614Z,83.7
2023-01-28T04:59:50.594Z,84.1
2023-01-28T05:04:50.603Z,84.0
2023-01-28T05:09:50.627Z,84.2
2023-01-28T05:14:50.606Z,83.5
2023-01-28T05:19:50.619Z,83.6
2023-01-28T05:24:50.670Z,83.5
2023-01-28T05:29:50.610Z,83.5
2023-01-28T05:34:50.624Z,83.2
2023-01-28T05:39:50.650Z,83.6
2023-01-28T05:44:50.625Z,84.0
2023-01-28T05:49:50.645Z,83.9
2023-01-28T05:54:50.663Z,84.0
2023-01-28T05:59:50.627Z,84.1
2023-01-28T06:04:50.641Z,83.7
2023-01-28T06:09:50.650Z,84.2
2023-01-28T06:14:50.653Z,84.3
2023-01-28T06:19:50.711Z,83.9
2023-01-28T06:24:50.798Z,84.0
2023-01-28T06:29:50.645Z,84.0
2023-01-28T06:34:50.648Z,83.9
2023-01-28T06:39:50.654Z,83.6
2023-01-28T06:44:50.662Z,84.1
2023-01-28T06:49:50.673Z,83.9
2023-01-28T06:54:50.697Z,84.4
2023-01-28T06:59:50.664Z,83.6
2023-01-28T07:04:50.664Z,82.9
2023-01-28T07:09:50.668Z,83.0
2023-01-28T07:14:50.680Z,83.6
2023-01-28T07:19:50.905Z,84.4
2023-01-28T07:24:50.790Z,84.7
2023-01-28T07:29:50.689Z,84.6
2023-01-28T07:34:50.691Z,84.4
2023-01-28T07:39:50.683Z,83.9
2023-01-28T07:44:50.696Z,83.8
2023-01-28T07:49:50.758Z,83.8
2023-01-28T07:54:50.712Z,85.1
2023-01-28T07:59:50.697Z,85.3
2023-01-28T08:04:50.852Z,85.2
2023-01-28T08:09:50.705Z,84.6
2023-01-28T08:14:50.707Z,85.0
2023-01-28T08:19:50.721Z,84.7
2023-01-28T08:24:50.792Z,84.4
2023-01-28T08:29:50.723Z,84.5
2023-01-28T08:34:50.724Z,84.6
2023-01-28T08:39:50.717Z,84.9
2023-01-28T08:44:50.718Z,85.6
2023-01-28T08:49:50.736Z,86.0
2023-01-28T08:54:50.758Z,85.1
2023-01-28T08:59:50.735Z,84.7
2023-01-28T09:04:50.729Z,85.2
2023-01-28T09:09:50.739Z,84.8
2023-01-28T09:14:50.751Z,84.3
2023-01-28T09:19:50.807Z,83.1
2023-01-28T09:24:50.800Z,84.6
2023-01-28T09:29:50.748Z,83.4
2023-01-28T09:34:50.750Z,83.6
2023-01-28T09:39:50.752Z,83.5
2023-01-28T09:44:50.757Z,83.9
2023-01-28T09:49:50.797Z,84.1
2023-01-28T09:54:50.773Z,83.4
2023-01-28T09:59:50.758Z,81.5
2023-01-28T10:04:50.759Z,82.3
2023-01-28T10:09:50.774Z,81.0
2023-01-28T10:14:50.775Z,81.0
2023-01-28T10:19:50.869Z,82.1
2023-01-28T10:24:50.797Z,81.8
2023-01-28T10:29:50.804Z,81.0
2023-01-28T10:34:50.780Z,81.0
2023-01-28T10:39:50.795Z,82.6
2023-01-28T10:42:41.442Z,81.4
2023-01-28T10:44:50.784Z,81.4
2023-01-28T10:49:50.795Z,80.5
2023-01-28T10:54:51.191Z,81.9
2023-01-28T10:59:50.796Z,83.0
2023-01-28T11:04:50.800Z,82.0
2023-01-28T11:09:50.804Z,82.0
2023-01-28T11:14:50.805Z,81.2
2023-01-28T11:19:50.834Z,81.7
2023-01-28T11:24:50.811Z,83.1
2023-01-28T11:29:50.828Z,83.5
2023-01-28T11:34:50.822Z,83.7
2023-01-28T11:39:50.820Z,83.2
2023-01-28T11:44:50.824Z,83.7
2023-01-28T11:49:50.840Z,83.2
2023-01-28T11:54:50.826Z,81.8
2023-01-28T11:59:50.838Z,82.6
2023-01-28T12:04:50.891Z,83.2
2023-01-28T12:09:50.828Z,82.2
2023-01-28T12:14:50.842Z,81.9
2023-01-28T12:19:50.990Z,81.7
2023-01-28T12:24:50.840Z,81.6
2023-01-28T12:29:50.871Z,80.1
2023-01-28T12:34:50.856Z,79.9
2023-01-28T12:39:50.852Z,80.3
2023-01-28T12:44:50.849Z,79.5
2023-01-28T12:49:50.869Z,79.4
2023-01-28T12:54:50.856Z,79.7
2023-01-28T12:59:50.884Z,79.8
2023-01-28T13:04:50.867Z,78.8
2023-01-28T13:09:50.870Z,77.9
2023-01-28T13:14:52.672Z,77.9
2023-01-28T13:19:50.932Z,78.4
2023-01-28T13:24:50.881Z,77.1
2023-01-28T13:29:50.895Z,75.9
2023-01-28T13:34:50.880Z,76.1
2023-01-28T13:39:50.883Z,76.3
2023-01-28T13:44:50.885Z,75.5
2023-01-28T13:49:50.938Z,76.3
2023-01-28T13:54:50.896Z,75.0
2023-01-28T13:59:50.907Z,77.1
2023-01-28T14:04:50.939Z,76.5
2023-01-28T14:09:50.921Z,77.4
2023-01-28T14:14:50.903Z,76.6
2023-01-28T14:19:50.941Z,76.8
2023-01-28T14:24:50.909Z,77.6
2023-01-28T14:29:50.962Z,77.7
2023-01-28T14:34:50.909Z,77.6
2023-01-28T14:39:50.911Z,77.5
2023-01-28T14:44:50.923Z,76.8
2023-01-28T14:49:50.923Z,78.1
2023-01-28T14:54:50.922Z,78.0
2023-01-28T14:59:50.960Z,78.5
2023-01-28T15:04:50.933Z,78.8
2023-01-28T15:09:50.937Z,79.5
2023-01-28T15:14:50.940Z,79.8
2023-01-28T15:19:50.949Z,80.3
2023-01-28T15:24:50.964Z,81.2
2023-01-28T15:29:50.962Z,81.3
2023-01-28T15:34:50.953Z,80.5
2023-01-28T15:39:50.946Z,81.2
2023-01-28T15:44:50.946Z,82.0
2023-01-28T15:49:50.971Z,81.2
2023-01-28T15:54:50.967Z,81.6
2023-01-28T15:59:50.985Z,82.8
2023-01-28T16:04:50.966Z,81.9
2023-01-28T16:09:50.961Z,82.0
2023-01-28T16:14:50.970Z,81.7
2023-01-28T16:19:50.984Z,82.2
2023-01-28T16:24:50.969Z,82.1
2023-01-28T16:29:50.987Z,82.0
2023-01-28T16:34:50.972Z,81.9
2023-01-28T16:39:50.974Z,82.1
2023-01-28T16:44:50.996Z,81.8
2023-01-28T16:49:50.999Z,81.8
2023-01-28T16:54:50.994Z,81.8
2023-01-28T16:59:51.022Z,81.5
2023-01-28T17:04:51.004Z,81.3
2023-01-28T17:09:50.994Z,82.1
2023-01-28T17:14:50.996Z,81.8
2023-01-28T17:19:51.008Z,81.8
2023-01-28T17:24:51.009Z,82.1
2023-01-28T17:29:51.014Z,82.1
2023-01-28T17:34:51.039Z,82.5
2023-01-28T17:39:51.014Z,82.6
2023-01-28T17:44:51.030Z,82.6
2023-01-28T17:49:51.029Z,82.7
2023-01-28T17:54:51.057Z,83.2
2023-01-28T17:59:51.052Z,83.2
2023-01-28T18:04:51.028Z,83.4
2023-01-28T18:09:51.035Z,83.4
2023-01-28T18:14:51.055Z,83.6
2023-01-28T18:19:51.055Z,83.6
2023-01-28T18:24:51.076Z,83.5
2023-01-28T18:29:51.064Z,83.7
2023-01-28T18:34:51.047Z,83.8
2023-01-28T18:39:51.046Z,83.9
2023-01-28T18:44:51.047Z,83.9
2023-01-28T18:49:51.058Z,83.8
2023-01-28T18:54:51.052Z,83.8
2023-01-28T18:59:51.297Z,83.6
2023-01-28T19:04:51.059Z,84.1
2023-01-28T19:09:51.060Z,84.2
2023-01-28T19:14:51.074Z,84.0
2023-01-28T19:19:51.087Z,84.1
2023-01-28T19:24:51.069Z,84.1
2023-01-28T19:29:51.074Z,84.1
2023-01-28T19:34:51.093Z,84.6
2023-01-28T19:39:51.089Z,84.8
2023-01-28T19:44:51.100Z,84.9
2023-01-28T19:49:51.096Z,85.1
2023-01-28T19:54:51.113Z,85.0
2023-01-28T19:59:51.091Z,85.0
2023-01-28T20:05:00.335Z,85.0
2023-01-28T20:09:51.096Z,85.2
2023-01-28T20:14:51.101Z,85.1
2023-01-28T20:19:51.135Z,85.2
2023-01-28T20:24:51.108Z,85.6
2023-01-28T20:29:51.107Z,85.5
2023-01-28T20:34:51.132Z,85.7
2023-01-28T20:39:51.112Z,85.9
2023-01-28T20:44:51.120Z,85.6
2023-01-28T20:49:51.149Z,85.9
2023-01-28T20:54:51.118Z,85.9
2023-01-28T20:59:51.133Z,86.1
2023-01-28T21:04:51.145Z,86.5
2023-01-28T21:09:51.131Z,86.6
2023-01-28T21:14:51.124Z,86.7
2023-01-28T21:19:51.144Z,86.2
2023-01-28T21:24:51.219Z,86.2
2023-01-28T21:29:51.140Z,86.4
2023-01-28T21:34:51.184Z,86.4
2023-01-28T21:39:51.158Z,86.6
2023-01-28T21:44:51.158Z,86.4
2023-01-28T21:49:51.251Z,86.6
2023-01-28T21:54:51.154Z,86.7
2023-01-28T21:59:51.153Z,86.9
2023-01-28T22:04:51.236Z,87.0
2023-01-28T22:09:51.160Z,87.0
2023-01-28T22:14:51.167Z,87.1
2023-01-28T22:19:51.173Z,86.9
2023-01-28T22:24:51.166Z,86.9
2023-01-28T22:29:51.177Z,87.2
2023-01-28T22:34:51.193Z,87.2
2023-01-28T22:39:51.174Z,87.4
2023-01-28T22:44:51.176Z,87.3
2023-01-28T22:49:51.193Z,87.3
2023-01-28T22:54:51.183Z,87.3
2023-01-28T22:59:59.552Z,87.6
2023-01-28T23:04:51.221Z,87.6
2023-01-28T23:09:51.189Z,87.6
2023-01-28T23:14:51.201Z,87.7
2023-01-28T23:19:51.286Z,87.8
2023-01-28T23:24:51.202Z,87.9
2023-01-28T23:29:51.214Z,87.9
2023-01-28T23:34:51.241Z,87.8
2023-01-28T23:39:51.212Z,87.7
2023-01-28T23:44:51.229Z,88.1
2023-01-28T23:49:51.272Z,87.9
2023-01-28T23:54:51.213Z,87.9
2023-01-28T23:59:51.225Z,87.8
